Time;durP1;ratioP1;P1;durP2;ratioP2;P2;SDS_P1;SDS_P2;PMS_P1;PMS_P2;Temp;Humidity;BMP_temperature;BMP_pressure;BME280_temperature;BME280_humidity;BME280_pressure;Samples;Min_cycle;Max_cycle;Signal;HPM_P1;HPM_P2
2020/12/16 00:01:53;;;;;;;57.20;34.88;;;204.90;1920.00;;;;;;5053509;28;20025;-69
2020/12/16 00:04:20;;;;;;;59.00;36.72;;;204.90;1920.00;;;;;;5053572;28;20028;-69
2020/12/16 00:06:46;;;;;;;59.60;35.40;;;204.90;1920.00;;;;;;5053140;28;20159;-69
2020/12/16 00:09:12;;;;;;;56.83;36.28;;;204.90;1920.00;;;;;;5053059;28;20141;-69
2020/12/16 00:11:37;;;;;;;59.88;36.97;;;204.90;1920.00;;;;;;5053212;28;20466;-69
2020/12/16 00:14:03;;;;;;;55.10;35.20;;;204.90;1920.00;;;;;;5053367;28;20033;-68
2020/12/16 00:16:29;;;;;;;57.90;35.50;;;204.90;1920.00;;;;;;5053468;28;20063;-68
2020/12/16 00:18:55;;;;;;;50.90;32.72;;;204.90;1920.00;;;;;;5053165;28;20032;-69
2020/12/16 00:21:22;;;;;;;49.72;30.73;;;205.00;1920.00;;;;;;5053108;28;20021;-69
2020/12/16 00:23:47;;;;;;;46.28;30.10;;;204.90;1920.00;;;;;;5053323;28;20029;-69
2020/12/16 00:26:14;;;;;;;46.42;29.23;;;205.00;1894.40;;;;;;5052963;28;20108;-69
2020/12/16 00:28:41;;;;;;;44.58;28.70;;;204.90;1920.00;;;;;;5052769;28;20043;-69
2020/12/16 00:31:07;;;;;;;42.47;26.92;;;204.90;1920.00;;;;;;5052693;28;20467;-68
2020/12/16 00:33:34;;;;;;;42.55;26.83;;;205.00;1894.40;;;;;;5053150;28;20064;-68
2020/12/16 00:36:00;;;;;;;44.00;27.90;;;204.90;1894.40;;;;;;5053104;28;20033;-68
2020/12/16 00:38:26;;;;;;;44.05;27.30;;;204.90;1894.40;;;;;;5052903;28;20060;-70
2020/12/16 00:40:51;;;;;;;43.40;26.15;;;204.90;1894.40;;;;;;5052520;28;20044;-69
2020/12/16 00:43:17;;;;;;;48.95;28.90;;;204.90;1894.40;;;;;;5055467;28;20029;-68
2020/12/16 00:45:43;;;;;;;49.83;29.20;;;205.00;1894.40;;;;;;5056468;28;20025;-70
2020/12/16 00:48:08;;;;;;;51.17;31.48;;;205.00;1894.40;;;;;;5056915;28;20122;-70
2020/12/16 00:50:34;;;;;;;53.00;31.33;;;205.00;1894.40;;;;;;5056316;28;20029;-69
2020/12/16 00:53:01;;;;;;;53.50;30.73;;;205.00;1894.40;;;;;;5056606;28;20025;-69
2020/12/16 00:55:26;;;;;;;53.10;31.67;;;204.90;1894.40;;;;;;5056211;28;20025;-68
2020/12/16 00:57:54;;;;;;;55.03;31.75;;;205.00;1894.40;;;;;;5056458;28;20041;-70
2020/12/16 01:00:20;;;;;;;56.50;33.22;;;205.00;1894.40;;;;;;5056472;28;20075;-70
2020/12/16 01:02:50;;;;;;;57.67;34.00;;;205.00;1894.40;;;;;;5056147;28;20490;-69
2020/12/16 01:05:17;;;;;;;57.33;34.75;;;205.00;1894.40;;;;;;5056233;28;20048;-67
2020/12/16 01:07:42;;;;;;;58.38;33.55;;;205.00;1894.40;;;;;;5056230;28;20037;-69
2020/12/16 01:10:10;;;;;;;58.35;33.03;;;205.00;1894.40;;;;;;5055670;28;20475;-69
2020/12/16 01:12:40;;;;;;;61.75;35.67;;;205.00;1894.40;;;;;;5055949;28;20033;-67
2020/12/16 01:15:19;;;;;;;56.95;33.20;;;205.00;1894.40;;;;;;5056071;28;20033;-69
2020/12/16 01:17:46;;;;;;;57.72;32.25;;;205.00;1894.40;;;;;;5055977;28;20068;-69
2020/12/16 01:20:12;;;;;;;60.65;34.10;;;205.00;1894.40;;;;;;5056094;28;20036;-68
2020/12/16 01:22:42;;;;;;;49.70;30.67;;;205.00;1894.40;;;;;;5055849;28;20029;-69
2020/12/16 01:25:09;;;;;;;54.13;32.67;;;205.00;1920.00;;;;;;5055809;28;20074;-69
2020/12/16 01:27:35;;;;;;;55.42;32.58;;;205.00;1894.40;;;;;;5055859;28;20075;-69
2020/12/16 01:30:03;;;;;;;56.25;33.60;;;205.10;1894.40;;;;;;5055690;28;20367;-69
2020/12/16 01:32:32;;;;;;;55.67;32.03;;;205.10;1894.40;;;;;;5037385;28;20033;-68
2020/12/16 01:34:59;;;;;;;58.72;34.58;;;205.10;1894.40;;;;;;5055516;28;20466;-69
2020/12/16 01:37:25;;;;;;;61.20;35.72;;;205.10;1894.40;;;;;;5055613;28;20060;-69
2020/12/16 01:39:50;;;;;;;60.65;34.20;;;205.10;1894.40;;;;;;5055340;28;20378;-69
2020/12/16 01:42:16;;;;;;;52.72;32.00;;;205.10;1894.40;;;;;;5055339;28;20052;-69
2020/12/16 01:44:42;;;;;;;63.58;34.72;;;205.10;1894.40;;;;;;5055784;28;20344;-69
2020/12/16 01:47:07;;;;;;;58.08;32.22;;;205.10;1894.40;;;;;;5055607;28;20535;-68
2020/12/16 01:49:33;;;;;;;53.83;32.70;;;205.10;1894.40;;;;;;5055507;28;20029;-67
2020/12/16 01:52:04;;;;;;;64.32;37.78;;;205.10;1894.40;;;;;;5055352;28;20494;-68
2020/12/16 01:54:33;;;;;;;68.43;42.38;;;205.10;1894.40;;;;;;5054809;28;20025;-68
2020/12/16 01:57:02;;;;;;;66.80;41.10;;;205.10;1894.40;;;;;;5055154;28;20390;-69
2020/12/16 01:59:34;;;;;;;65.43;40.28;;;205.00;1894.40;;;;;;5054844;28;20029;-68
2020/12/16 02:02:02;;;;;;;64.18;39.25;;;205.10;1894.40;;;;;;5054912;28;20033;-67
2020/12/16 02:04:34;;;;;;;81.60;44.40;;;205.10;1894.40;;;;;;5037081;28;20508;-70
2020/12/16 02:07:06;;;;;;;101.68;55.53;;;205.10;1894.40;;;;;;5054979;28;20370;-68
2020/12/16 02:09:41;;;;;;;100.95;54.35;;;205.20;1894.40;;;;;;5055006;28;20033;-69
2020/12/16 02:12:13;;;;;;;98.13;51.22;;;205.20;1894.40;;;;;;5054949;28;20103;-69
2020/12/16 02:14:40;;;;;;;87.47;49.50;;;205.20;1894.40;;;;;;5054988;28;20408;-69
2020/12/16 02:17:07;;;;;;;85.45;45.47;;;205.20;1894.40;;;;;;5054684;28;20065;-68
2020/12/16 02:19:39;;;;;;;92.53;47.47;;;205.20;1894.40;;;;;;5054720;28;20482;-69
2020/12/16 02:22:05;;;;;;;89.90;48.05;;;205.30;1868.80;;;;;;5054891;28;20024;-69
2020/12/16 02:24:33;;;;;;;137.63;92.85;;;205.30;1894.40;;;;;;5054721;28;20049;-67
2020/12/16 02:26:58;;;;;;;130.45;85.45;;;205.30;1868.80;;;;;;5054332;28;20036;-69
2020/12/16 02:29:25;;;;;;;115.55;67.30;;;205.20;1868.80;;;;;;5054654;28;20381;-69
2020/12/16 02:31:53;;;;;;;101.53;60.10;;;205.30;1894.40;;;;;;5054696;28;20466;-69
2020/12/16 02:34:19;;;;;;;101.50;54.30;;;205.30;1868.80;;;;;;5054434;28;20470;-70
2020/12/16 02:36:45;;;;;;;107.63;60.28;;;205.20;1894.40;;;;;;5054387;28;20033;-69
2020/12/16 02:39:11;;;;;;;113.47;61.17;;;205.20;1894.40;;;;;;5054416;28;20352;-68
2020/12/16 02:41:36;;;;;;;110.55;59.20;;;205.20;1894.40;;;;;;5054023;28;20045;-67
2020/12/16 02:44:02;;;;;;;107.35;52.83;;;205.30;1868.80;;;;;;5054241;28;20454;-68
2020/12/16 02:46:28;;;;;;;91.68;48.38;;;205.20;1894.40;;;;;;5054232;28;20028;-68
2020/12/16 02:48:54;;;;;;;100.35;49.67;;;205.10;1894.40;;;;;;5055661;28;20021;-71
2020/12/16 02:51:19;;;;;;;96.85;48.13;;;205.00;1920.00;;;;;;5054285;28;20029;-70
2020/12/16 02:53:45;;;;;;;98.53;48.78;;;205.00;1894.40;;;;;;5054268;28;20043;-71
2020/12/16 02:56:11;;;;;;;97.35;48.20;;;205.10;1920.00;;;;;;5053924;28;20479;-71
2020/12/16 02:58:44;;;;;;;92.40;47.05;;;205.00;1894.40;;;;;;5054190;28;20025;-70
2020/12/16 03:01:10;;;;;;;91.53;45.80;;;205.10;1894.40;;;;;;5054465;28;20424;-69
2020/12/16 03:03:36;;;;;;;105.10;49.50;;;205.10;1920.00;;;;;;5053665;28;20047;-72
2020/12/16 03:06:02;;;;;;;109.25;50.60;;;205.10;1894.40;;;;;;5053366;28;20463;-68
2020/12/16 03:08:27;;;;;;;109.32;50.20;;;205.00;1920.00;;;;;;5054077;28;20032;-69
2020/12/16 03:10:53;;;;;;;102.05;48.95;;;205.10;1920.00;;;;;;5053713;28;20021;-69
2020/12/16 03:13:18;;;;;;;94.40;48.50;;;204.90;1920.00;;;;;;5054075;28;20387;-69
2020/12/16 03:15:44;;;;;;;94.03;46.55;;;204.90;1920.00;;;;;;5053748;28;20032;-68
2020/12/16 03:18:10;;;;;;;95.43;45.42;;;204.90;1920.00;;;;;;5053827;28;20486;-69
2020/12/16 03:20:35;;;;;;;95.75;45.03;;;205.00;1920.00;;;;;;5053654;28;20020;-69
2020/12/16 03:23:01;;;;;;;91.95;45.13;;;205.00;1920.00;;;;;;5053756;28;20029;-69
2020/12/16 03:25:27;;;;;;;91.88;45.42;;;205.00;1920.00;;;;;;5053723;28;20021;-68
2020/12/16 03:27:53;;;;;;;103.65;48.90;;;205.10;1894.40;;;;;;5053743;28;20025;-69
2020/12/16 03:30:18;;;;;;;103.95;48.63;;;205.10;1894.40;;;;;;5053682;28;20088;-69
2020/12/16 03:32:44;;;;;;;107.85;52.60;;;205.10;1894.40;;;;;;5053751;28;20055;-69
2020/12/16 03:35:10;;;;;;;122.10;61.15;;;205.10;1894.40;;;;;;5053662;28;20056;-68
2020/12/16 03:37:35;;;;;;;124.68;62.58;;;205.10;1894.40;;;;;;5053652;28;20043;-67
2020/12/16 03:40:01;;;;;;;124.82;58.03;;;205.10;1920.00;;;;;;5035450;28;20029;-69
2020/12/16 03:42:27;;;;;;;118.05;56.33;;;205.10;1894.40;;;;;;5052956;28;20433;-68
2020/12/16 03:44:52;;;;;;;115.63;51.42;;;205.10;1894.40;;;;;;5053435;28;20051;-68
2020/12/16 03:47:18;;;;;;;111.05;51.85;;;205.10;1920.00;;;;;;5053644;28;20033;-68
2020/12/16 03:49:44;;;;;;;100.10;50.05;;;205.10;1920.00;;;;;;5053455;28;20154;-68
2020/12/16 03:52:09;;;;;;;107.07;50.00;;;205.10;1894.40;;;;;;5053442;28;20379;-69
2020/12/16 03:54:35;;;;;;;102.38;49.83;;;205.20;1894.40;;;;;;5053601;28;20020;-68
2020/12/16 03:57:01;;;;;;;110.68;53.08;;;205.10;1894.40;;;;;;5052873;28;20037;-68
2020/12/16 03:59:26;;;;;;;119.60;55.53;;;205.20;1894.40;;;;;;5053487;28;20021;-68
2020/12/16 04:01:52;;;;;;;112.60;56.13;;;205.10;1894.40;;;;;;5053481;28;20103;-69
2020/12/16 04:04:18;;;;;;;112.80;52.17;;;205.10;1894.40;;;;;;5053254;28;20091;-69
2020/12/16 04:06:44;;;;;;;112.18;52.60;;;205.20;1894.40;;;;;;5053436;28;20143;-69
2020/12/16 04:09:09;;;;;;;106.20;48.90;;;205.20;1894.40;;;;;;5053343;28;20028;-69
2020/12/16 04:11:35;;;;;;;107.65;54.28;;;205.20;1894.40;;;;;;5053237;28;20474;-69
2020/12/16 04:14:01;;;;;;;113.93;53.28;;;205.20;1894.40;;;;;;5053575;28;20028;-70
2020/12/16 04:16:26;;;;;;;109.28;53.75;;;205.20;1894.40;;;;;;5054000;28;20344;-69
2020/12/16 04:18:52;;;;;;;125.65;62.55;;;205.20;1894.40;;;;;;5056873;28;20025;-69
2020/12/16 04:21:20;;;;;;;115.82;59.17;;;205.10;1894.40;;;;;;5056786;28;20071;-69
2020/12/16 04:23:46;;;;;;;124.20;64.95;;;205.10;1894.40;;;;;;5057056;28;20060;-68
2020/12/16 04:26:12;;;;;;;127.90;68.45;;;205.10;1894.40;;;;;;5056949;28;20049;-70
2020/12/16 04:28:38;;;;;;;121.65;65.03;;;205.10;1894.40;;;;;;5056884;28;20037;-71
2020/12/16 04:31:05;;;;;;;125.45;65.35;;;205.10;1894.40;;;;;;5056803;28;20459;-70
2020/12/16 04:33:31;;;;;;;110.60;59.00;;;205.10;1894.40;;;;;;5056907;28;20041;-70
2020/12/16 04:35:58;;;;;;;102.25;54.05;;;205.20;1894.40;;;;;;5056838;28;20386;-70
2020/12/16 04:38:24;;;;;;;105.68;51.25;;;205.20;1894.40;;;;;;5056573;28;20041;-70
2020/12/16 04:40:50;;;;;;;107.68;52.92;;;205.20;1894.40;;;;;;5056440;28;20053;-70
2020/12/16 04:43:21;;;;;;;113.97;53.97;;;205.20;1894.40;;;;;;5056370;28;20051;-70
2020/12/16 04:45:47;;;;;;;109.88;58.33;;;205.10;1894.40;;;;;;5056429;28;20025;-70
2020/12/16 04:48:14;;;;;;;114.03;57.38;;;205.10;1894.40;;;;;;5056441;28;20511;-70
2020/12/16 04:50:41;;;;;;;114.28;58.88;;;205.10;1894.40;;;;;;5056326;28;20079;-70
2020/12/16 04:53:12;;;;;;;117.80;60.72;;;205.10;1920.00;;;;;;5056448;28;20033;-70
2020/12/16 04:55:38;;;;;;;124.75;68.80;;;205.10;1894.40;;;;;;5056318;28;20025;-70
2020/12/16 04:58:05;;;;;;;135.50;71.43;;;205.10;1920.00;;;;;;5056212;28;20043;-70
2020/12/16 05:00:32;;;;;;;134.27;73.40;;;205.10;1894.40;;;;;;5056164;28;20475;-69
2020/12/16 05:03:01;;;;;;;139.85;71.38;;;205.00;1920.00;;;;;;5056381;28;20025;-70
2020/12/16 05:05:27;;;;;;;127.28;64.47;;;205.10;1920.00;;;;;;5056272;28;20158;-68
2020/12/16 05:07:54;;;;;;;129.88;65.43;;;205.00;1920.00;;;;;;5056024;28;20036;-68
2020/12/16 05:10:51;;;;;;;124.75;67.50;;;204.90;1920.00;;;;;;5056012;28;20017;-68
2020/12/16 05:13:19;;;;;;;112.25;60.67;;;205.00;1920.00;;;;;;4956057;29;20031;-69
2020/12/16 05:15:48;;;;;;;114.78;60.35;;;205.00;1920.00;;;;;;4955872;28;20035;-68
2020/12/16 05:18:15;;;;;;;106.80;54.33;;;205.00;1920.00;;;;;;4955824;29;20043;-69
2020/12/16 05:20:45;;;;;;;102.63;52.70;;;204.90;1920.00;;;;;;4955891;29;20028;-68
2020/12/16 05:23:10;;;;;;;110.63;58.78;;;204.80;1945.60;;;;;;4955771;29;20064;-68
2020/12/16 05:25:37;;;;;;;119.28;60.35;;;204.90;1920.00;;;;;;4955516;29;20354;-70
2020/12/16 05:28:05;;;;;;;117.97;62.88;;;204.80;1945.60;;;;;;4955085;28;20034;-69
2020/12/16 05:30:32;;;;;;;124.00;60.80;;;204.80;1945.60;;;;;;4955939;29;20035;-69
2020/12/16 05:33:01;;;;;;;117.75;58.22;;;180.10;1945.60;;;;;;4955620;29;20485;-69
2020/12/16 05:35:36;;;;;;;107.60;52.80;;;204.80;1945.60;;;;;;4955706;29;20043;-70
2020/12/16 05:38:07;;;;;;;97.60;48.78;;;180.10;1971.20;;;;;;4955437;29;20133;-69
2020/12/16 05:40:36;;;;;;;102.00;45.53;;;180.10;1971.20;;;;;;4939094;29;20043;-66
2020/12/16 05:43:03;;;;;;;90.32;41.53;;;180.10;1971.20;;;;;;4955456;29;20110;-68
2020/12/16 05:45:30;;;;;;;85.93;42.00;;;180.10;1971.20;;;;;;4939636;29;20031;-68
2020/12/16 05:48:14;;;;;;;82.55;41.88;;;180.10;1945.60;;;;;;4965188;28;20023;-69
2020/12/16 05:50:51;;;;;;;172.55;106.85;;;180.10;1971.20;;;;;;5035571;28;20527;-68
2020/12/16 05:53:22;;;;;;;214.45;127.82;;;180.10;1971.20;;;;;;5035505;28;20053;-69
2020/12/16 05:55:55;;;;;;;204.30;110.85;;;180.10;1996.80;;;;;;5035142;28;20026;-70
2020/12/16 05:58:22;;;;;;;149.77;77.30;;;204.80;2022.40;;;;;;5035264;28;20038;-67
2020/12/16 06:00:49;;;;;;;113.45;57.75;;;204.90;2022.40;;;;;;5035356;28;20017;-69
2020/12/16 06:03:35;;;;;;;123.18;60.00;;;204.80;1971.20;;;;;;5035256;28;20033;-69
2020/12/16 06:06:02;;;;;;;132.88;72.82;;;204.90;1971.20;;;;;;5035258;28;20017;-69
2020/12/16 06:08:32;;;;;;;107.00;58.10;;;204.80;1971.20;;;;;;5034833;28;20072;-68
2020/12/16 06:10:58;;;;;;;103.57;56.72;;;204.80;1971.20;;;;;;5035057;28;20474;-69
2020/12/16 06:13:24;;;;;;;104.22;52.92;;;180.10;1971.20;;;;;;5034961;28;20028;-69
2020/12/16 06:16:03;;;;;;;118.13;69.07;;;180.10;1971.20;;;;;;5034806;28;20036;-69
2020/12/16 06:18:34;;;;;;;96.75;54.55;;;180.10;1971.20;;;;;;5034712;28;20033;-69
2020/12/16 06:21:01;;;;;;;84.32;44.42;;;180.10;1971.20;;;;;;5034717;28;20030;-68
2020/12/16 06:23:38;;;;;;;75.35;40.38;;;180.10;1971.20;;;;;;5034837;28;20056;-69
2020/12/16 06:26:08;;;;;;;80.22;37.30;;;180.10;1971.20;;;;;;5034461;28;20036;-69
2020/12/16 06:28:34;;;;;;;78.07;38.70;;;180.10;1971.20;;;;;;5034530;28;20017;-69
2020/12/16 06:31:15;;;;;;;83.55;39.80;;;180.00;1971.20;;;;;;5034636;28;20041;-69
2020/12/16 06:33:52;;;;;;;84.13;39.58;;;180.00;1971.20;;;;;;5034436;28;20030;-69
2020/12/16 06:36:19;;;;;;;90.45;41.25;;;180.00;1971.20;;;;;;5034481;28;20030;-68
2020/12/16 06:38:49;;;;;;;119.30;53.47;;;180.00;1971.20;;;;;;5016786;28;20060;-69
2020/12/16 06:41:31;;;;;;;132.95;61.70;;;180.10;1971.20;;;;;;5044281;28;20570;-69
2020/12/16 06:44:07;;;;;;;121.47;55.88;;;180.10;1971.20;;;;;;5035925;28;20033;-69
2020/12/16 06:46:33;;;;;;;118.18;50.75;;;180.10;1971.20;;;;;;5054372;28;20066;-69
2020/12/16 06:49:04;;;;;;;168.70;84.13;;;204.80;1945.60;;;;;;5054321;28;20107;-69
2020/12/16 06:51:30;;;;;;;152.60;78.28;;;204.80;1945.60;;;;;;5054216;28;20024;-68
2020/12/16 06:54:17;;;;;;;178.00;88.85;;;204.80;1945.60;;;;;;5054194;28;20366;-69
2020/12/16 06:56:45;;;;;;;183.35;89.80;;;204.80;1971.20;;;;;;5053920;28;20043;-69
2020/12/16 06:59:15;;;;;;;173.50;89.32;;;180.10;1971.20;;;;;;5054129;28;20024;-68
2020/12/16 07:01:41;;;;;;;157.77;83.28;;;204.80;1971.20;;;;;;5054056;28;20037;-68
2020/12/16 07:04:11;;;;;;;149.85;78.85;;;204.80;1945.60;;;;;;5053824;28;20063;-69
2020/12/16 07:06:41;;;;;;;145.60;77.30;;;204.80;1971.20;;;;;;5054028;28;20025;-69
2020/12/16 07:09:13;;;;;;;119.00;64.50;;;204.80;1945.60;;;;;;5054169;28;20021;-69
2020/12/16 07:11:52;;;;;;;112.65;58.08;;;204.80;1971.20;;;;;;5053821;28;20025;-69
2020/12/16 07:14:25;;;;;;;118.53;57.13;;;204.80;1971.20;;;;;;5053926;28;20036;-69
2020/12/16 07:16:51;;;;;;;99.40;50.85;;;204.80;1971.20;;;;;;5053772;28;20028;-69
2020/12/16 07:19:28;;;;;;;105.45;53.55;;;204.80;1971.20;;;;;;5053900;28;20024;-68
2020/12/16 07:21:57;;;;;;;90.57;51.05;;;204.80;1971.20;;;;;;5053576;28;20055;-68
2020/12/16 07:24:24;;;;;;;99.57;52.13;;;204.80;1971.20;;;;;;5053841;28;20075;-68
2020/12/16 07:26:56;;;;;;;97.65;51.35;;;204.90;1971.20;;;;;;5053809;28;20112;-68
2020/12/16 07:29:37;;;;;;;95.55;52.35;;;204.90;1945.60;;;;;;5053576;28;20040;-68
2020/12/16 07:32:13;;;;;;;97.88;49.58;;;204.90;1945.60;;;;;;5053723;28;20086;-69
2020/12/16 07:34:49;;;;;;;101.13;50.40;;;205.00;1945.60;;;;;;5053846;28;20031;-69
2020/12/16 07:37:17;;;;;;;123.00;59.83;;;205.10;1945.60;;;;;;5053583;28;20029;-69
2020/12/16 07:39:54;;;;;;;123.47;63.15;;;205.10;1945.60;;;;;;5053449;28;20033;-67
2020/12/16 07:42:22;;;;;;;124.95;63.92;;;205.10;1945.60;;;;;;5053603;28;20060;-67
2020/12/16 07:44:48;;;;;;;130.63;63.85;;;205.10;1945.60;;;;;;5053547;28;20036;-69
2020/12/16 07:47:18;;;;;;;132.30;63.78;;;205.20;1945.60;;;;;;5053416;28;20474;-69
2020/12/16 07:49:45;;;;;;;122.80;60.38;;;205.20;1945.60;;;;;;5053618;28;20025;-68
2020/12/16 07:52:11;;;;;;;113.00;56.70;;;205.20;1920.00;;;;;;5055759;28;20029;-68
2020/12/16 07:54:37;;;;;;;124.22;55.85;;;205.30;1920.00;;;;;;5057542;28;20381;-68
2020/12/16 07:57:04;;;;;;;110.28;54.70;;;205.30;1920.00;;;;;;5057215;28;20094;-68
2020/12/16 07:59:35;;;;;;;105.40;51.97;;;205.20;1945.60;;;;;;5057294;28;20029;-68
2020/12/16 08:02:11;;;;;;;92.95;48.67;;;205.20;1945.60;;;;;;5057278;28;20033;-69
2020/12/16 08:04:39;;;;;;;94.28;48.88;;;205.30;1920.00;;;;;;5057165;28;20470;-69
2020/12/16 08:07:16;;;;;;;93.95;47.42;;;205.30;1920.00;;;;;;5057151;28;20028;-69
2020/12/16 08:09:59;;;;;;;83.63;44.30;;;205.30;1920.00;;;;;;5057278;28;20033;-68
2020/12/16 08:12:30;;;;;;;79.20;42.05;;;205.30;1920.00;;;;;;5057360;28;20036;-69
2020/12/16 08:15:15;;;;;;;86.70;43.53;;;205.30;1920.00;;;;;;5057090;28;20052;-69
2020/12/16 08:17:41;;;;;;;76.40;42.97;;;205.40;1920.00;;;;;;5057237;28;20060;-68
2020/12/16 08:20:21;;;;;;;76.00;43.10;;;205.40;1920.00;;;;;;5056649;28;20024;-69
2020/12/16 08:22:55;;;;;;;81.85;41.53;;;205.40;1920.00;;;;;;5057020;28;20044;-68
2020/12/16 08:25:22;;;;;;;70.28;40.25;;;205.40;1920.00;;;;;;5056878;28;20033;-69
2020/12/16 08:27:57;;;;;;;82.63;44.70;;;205.50;1920.00;;;;;;5056961;28;20025;-69
2020/12/16 08:30:25;;;;;;;78.43;44.35;;;205.40;1920.00;;;;;;5038902;28;20029;-69
2020/12/16 08:33:07;;;;;;;90.63;49.13;;;205.40;1920.00;;;;;;5057173;28;20390;-69
2020/12/16 08:35:51;;;;;;;96.43;52.58;;;205.50;1920.00;;;;;;5056801;28;20033;-69
2020/12/16 08:38:25;;;;;;;92.95;52.00;;;205.50;1920.00;;;;;;5056330;28;20044;-69
2020/12/16 08:40:51;;;;;;;100.13;53.42;;;205.50;1920.00;;;;;;5056536;28;20053;-69
2020/12/16 08:43:31;;;;;;;102.97;57.17;;;205.50;1920.00;;;;;;5056473;28;20032;-68
2020/12/16 08:46:17;;;;;;;95.88;51.40;;;205.50;1894.40;;;;;;5056607;28;20021;-69
2020/12/16 08:48:49;;;;;;;109.72;55.13;;;205.50;1894.40;;;;;;5056673;28;20032;-69
2020/12/16 08:51:19;;;;;;;93.95;50.03;;;205.50;1894.40;;;;;;5056480;28;20078;-68
2020/12/16 08:53:46;;;;;;;88.82;49.17;;;205.60;1894.40;;;;;;5056334;28;20086;-69
2020/12/16 08:56:33;;;;;;;94.50;49.33;;;205.60;1894.40;;;;;;5056289;28;20028;-69
2020/12/16 08:59:08;;;;;;;86.13;46.70;;;205.60;1894.40;;;;;;5056373;28;20471;-69
2020/12/16 09:01:35;;;;;;;96.47;49.70;;;205.60;1894.40;;;;;;5056335;28;20017;-69
2020/12/16 09:04:01;;;;;;;95.78;53.38;;;205.70;1894.40;;;;;;5055018;28;20044;-69
2020/12/16 09:06:27;;;;;;;96.15;53.55;;;205.70;1894.40;;;;;;5056215;28;20477;-69
2020/12/16 09:08:53;;;;;;;96.25;55.58;;;205.70;1894.40;;;;;;5055997;28;20096;-69
2020/12/16 09:11:22;;;;;;;93.20;55.83;;;205.70;1894.40;;;;;;5056122;28;20021;-69
2020/12/16 09:13:49;;;;;;;92.72;52.70;;;205.50;1894.40;;;;;;5056192;28;20111;-69
2020/12/16 09:16:19;;;;;;;96.55;53.40;;;205.50;1920.00;;;;;;5055450;28;20017;-68
2020/12/16 09:18:46;;;;;;;119.90;62.08;;;205.60;1894.40;;;;;;5055987;28;20041;-69
2020/12/16 09:21:12;;;;;;;117.70;63.70;;;205.60;1894.40;;;;;;5055946;28;20029;-69
2020/12/16 09:23:38;;;;;;;115.05;62.67;;;205.60;1920.00;;;;;;5055616;28;20163;-69
2020/12/16 09:26:03;;;;;;;117.50;68.82;;;205.60;1894.40;;;;;;5055986;28;20510;-68
2020/12/16 09:28:37;;;;;;;103.10;63.25;;;205.60;1920.00;;;;;;5056080;28;20104;-69
2020/12/16 09:31:21;;;;;;;97.35;56.40;;;205.60;1920.00;;;;;;5055504;28;20025;-69
2020/12/16 09:33:56;;;;;;;103.47;57.80;;;205.70;1894.40;;;;;;5055553;28;20490;-68
2020/12/16 09:36:27;;;;;;;115.80;66.45;;;205.70;1894.40;;;;;;5055800;28;20067;-67
2020/12/16 09:39:00;;;;;;;141.95;78.63;;;230.40;1894.40;;;;;;5055595;28;20036;-69
2020/12/16 09:41:27;;;;;;;145.82;84.22;;;230.40;1868.80;;;;;;5055263;28;20045;-69
2020/12/16 09:43:53;;;;;;;156.23;91.97;;;230.40;1868.80;;;;;;5055747;28;20031;-69
2020/12/16 09:46:24;;;;;;;134.18;76.35;;;230.40;1894.40;;;;;;5055456;28;20471;-69
2020/12/16 09:48:58;;;;;;;121.10;67.68;;;230.40;1868.80;;;;;;5055282;28;20470;-67
2020/12/16 09:51:24;;;;;;;122.65;69.40;;;230.40;1868.80;;;;;;5055311;28;20025;-69
2020/12/16 09:53:50;;;;;;;120.82;66.85;;;230.40;1868.80;;;;;;5055823;28;20087;-69
2020/12/16 09:56:22;;;;;;;127.05;70.68;;;230.40;1868.80;;;;;;5055282;28;20025;-69
2020/12/16 09:58:48;;;;;;;159.30;81.07;;;230.50;1868.80;;;;;;5055299;28;20037;-69
2020/12/16 10:01:14;;;;;;;163.23;84.07;;;230.60;1868.80;;;;;;5054709;28;20029;-69
2020/12/16 10:03:40;;;;;;;142.18;74.65;;;230.60;1843.20;;;;;;5055081;28;20037;-69
2020/12/16 10:06:14;;;;;;;150.25;75.30;;;230.70;1843.20;;;;;;5055128;28;20025;-69
2020/12/16 10:08:40;;;;;;;149.30;73.40;;;230.70;1843.20;;;;;;5054722;28;20025;-69
2020/12/16 10:11:16;;;;;;;138.77;65.88;;;230.80;1843.20;;;;;;5054537;28;20029;-69
2020/12/16 10:13:43;;;;;;;117.72;61.28;;;230.80;1843.20;;;;;;5055437;28;20029;-69
2020/12/16 10:16:09;;;;;;;110.25;58.72;;;230.80;1817.60;;;;;;5055108;28;20029;-69
2020/12/16 10:18:50;;;;;;;91.90;49.75;;;230.80;1817.60;;;;;;4993496;28;20058;-69
2020/12/16 10:21:15;;;;;;;90.18;50.95;;;230.80;1817.60;;;;;;4993533;28;20034;-69
2020/12/16 10:23:41;;;;;;;84.78;45.15;;;230.80;1817.60;;;;;;4993308;28;20042;-68
2020/12/16 10:26:07;;;;;;;70.70;41.38;;;230.90;1817.60;;;;;;4993205;28;20049;-69
2020/12/16 10:28:33;;;;;;;76.05;42.10;;;230.90;1817.60;;;;;;4993263;28;20469;-69
2020/12/16 10:30:58;;;;;;;74.85;41.83;;;230.90;1817.60;;;;;;4993220;28;20054;-69
2020/12/16 10:33:24;;;;;;;71.53;43.10;;;230.90;1817.60;;;;;;4993476;28;20029;-69
2020/12/16 10:35:50;;;;;;;81.70;46.17;;;231.00;1817.60;;;;;;4993238;28;20049;-69
2020/12/16 10:38:16;;;;;;;86.97;48.85;;;231.00;1817.60;;;;;;4992918;28;20038;-69
2020/12/16 10:40:42;;;;;;;91.30;52.28;;;231.00;1817.60;;;;;;4992757;28;20070;-69
2020/12/16 10:43:07;;;;;;;89.97;49.90;;;231.00;1817.60;;;;;;4993360;28;20189;-69
2020/12/16 10:45:33;;;;;;;84.60;48.40;;;231.00;1792.00;;;;;;4992929;28;20072;-69
2020/12/16 10:47:59;;;;;;;77.85;44.97;;;231.00;1817.60;;;;;;4993643;28;20073;-69
2020/12/16 10:50:32;;;;;;;82.25;48.90;;;231.00;1792.00;;;;;;4993067;28;20033;-69
2020/12/16 10:52:59;;;;;;;82.75;47.33;;;231.00;1817.60;;;;;;4992925;28;20034;-69
2020/12/16 10:55:25;;;;;;;86.38;48.38;;;230.90;1817.60;;;;;;5008445;28;20041;-69
2020/12/16 10:57:51;;;;;;;90.18;48.28;;;231.00;1817.60;;;;;;5054109;28;20044;-69
2020/12/16 11:00:17;;;;;;;92.25;50.25;;;231.00;1817.60;;;;;;5054003;28;20116;-68
2020/12/16 11:02:43;;;;;;;92.07;51.88;;;231.00;1792.00;;;;;;5054150;28;20107;-69
2020/12/16 11:05:08;;;;;;;79.72;45.50;;;231.00;1817.60;;;;;;5054256;28;20374;-69
2020/12/16 11:07:34;;;;;;;84.10;45.55;;;231.00;1792.00;;;;;;5053810;28;20021;-69
2020/12/16 11:10:00;;;;;;;82.70;46.20;;;231.00;1792.00;;;;;;5053980;28;20028;-69
2020/12/16 11:12:25;;;;;;;76.93;42.83;;;230.90;1817.60;;;;;;5054049;28;20099;-69
2020/12/16 11:14:51;;;;;;;81.68;44.38;;;230.90;1792.00;;;;;;5035534;28;20547;-69
2020/12/16 11:17:17;;;;;;;73.25;41.05;;;231.00;1817.60;;;;;;5053792;28;20032;-69
2020/12/16 11:19:43;;;;;;;75.88;44.92;;;230.90;1817.60;;;;;;5053774;28;20024;-69
2020/12/16 11:22:08;;;;;;;79.63;45.47;;;230.90;1792.00;;;;;;5053821;28;20489;-69
2020/12/16 11:24:34;;;;;;;88.22;48.50;;;230.90;1792.00;;;;;;5053902;28;20078;-69
2020/12/16 11:27:00;;;;;;;72.88;44.58;;;230.90;1817.60;;;;;;5053239;28;20490;-69
2020/12/16 11:29:26;;;;;;;78.70;46.63;;;230.80;1817.60;;;;;;5053880;28;20028;-69
2020/12/16 11:31:55;;;;;;;85.80;49.83;;;230.80;1817.60;;;;;;5053554;28;20052;-69
2020/12/16 11:34:23;;;;;;;93.72;50.60;;;230.90;1817.60;;;;;;5053603;28;20481;-68
2020/12/16 11:36:50;;;;;;;90.80;51.10;;;230.80;1817.60;;;;;;5053541;28;20025;-70
2020/12/16 11:39:17;;;;;;;97.63;52.05;;;230.80;1817.60;;;;;;5053348;28;20028;-69
2020/12/16 11:41:51;;;;;;;97.30;53.85;;;230.90;1817.60;;;;;;5053290;28;20052;-69
2020/12/16 11:44:18;;;;;;;133.98;69.32;;;230.80;1817.60;;;;;;5054045;28;20029;-70
2020/12/16 11:46:45;;;;;;;120.60;60.63;;;230.80;1817.60;;;;;;5053481;28;20107;-69
2020/12/16 11:49:12;;;;;;;112.63;62.83;;;230.90;1817.60;;;;;;5053586;28;20076;-69
2020/12/16 11:51:39;;;;;;;106.72;60.78;;;230.90;1817.60;;;;;;5053509;28;20021;-69
2020/12/16 11:54:05;;;;;;;124.35;63.65;;;230.90;1817.60;;;;;;5053507;28;20048;-69
2020/12/16 11:56:35;;;;;;;117.63;59.40;;;230.90;1817.60;;;;;;5053500;28;20044;-69
2020/12/16 11:59:02;;;;;;;107.55;58.47;;;231.00;1817.60;;;;;;5053575;28;20049;-69
2020/12/16 12:01:28;;;;;;;100.25;54.78;;;231.00;1792.00;;;;;;5053645;28;20017;-69